Time;durP1;ratioP1;P1;durP2;ratioP2;P2;SDS_P1;SDS_P2;PMS_P1;PMS_P2;Temp;Humidity;BMP_temperature;BMP_pressure;BME280_temperature;BME280_humidity;BME280_pressure;Samples;Min_cycle;Max_cycle;Signal;HPM_P1;HPM_P2
2022/12/04 00:00:48;;;;;;;35.17;15.95;;;;;;;7.63;94.76;100913.41;5071547;28;20030;-37
2022/12/04 00:03:14;;;;;;;40.92;16.92;;;;;;;7.68;94.70;100919.06;5071266;28;20032;-37
2022/12/04 00:05:39;;;;;;;38.97;16.80;;;;;;;7.72;94.88;100914.28;5071291;28;20017;-36
2022/12/04 00:08:05;;;;;;;40.90;16.02;;;;;;;7.58;95.26;100903.28;5071392;28;20035;-37
2022/12/04 00:10:30;;;;;;;38.60;16.38;;;;;;;7.30;97.42;100901.75;5071362;28;20025;-36
2022/12/04 00:12:56;;;;;;;40.90;17.35;;;;;;;7.49;96.83;100904.19;5071414;28;20082;-36
2022/12/04 00:15:21;;;;;;;40.13;16.92;;;;;;;7.46;97.13;100908.97;5069958;28;20141;-35
2022/12/04 00:17:47;;;;;;;42.65;17.92;;;;;;;7.61;96.00;100908.25;5071310;28;20052;-36
2022/12/04 00:20:13;;;;;;;44.80;17.55;;;;;;;7.34;97.41;100909.22;5071225;28;20461;-36
2022/12/04 00:22:38;;;;;;;48.03;18.27;;;;;;;7.33;97.22;100917.31;5071227;28;20017;-36
2022/12/04 00:25:04;;;;;;;46.10;18.05;;;;;;;7.38;97.82;100929.13;5071026;28;20035;-36
2022/12/04 00:27:29;;;;;;;51.47;18.02;;;;;;;7.54;97.39;100916.97;5071156;28;20028;-36
2022/12/04 00:29:55;;;;;;;49.05;18.73;;;;;;;7.46;97.25;100909.81;5070841;28;20048;-36
2022/12/04 00:32:20;;;;;;;50.25;19.92;;;;;;;7.46;98.09;100915.09;5070949;28;20033;-36
2022/12/04 00:34:46;;;;;;;46.08;16.55;;;;;;;7.34;97.95;100925.13;5070932;28;20112;-36
2022/12/04 00:37:11;;;;;;;46.97;17.73;;;;;;;7.36;98.26;100904.59;5070987;28;20017;-36
2022/12/04 00:39:37;;;;;;;44.47;17.52;;;;;;;7.51;96.81;100914.66;5070370;28;20111;-37
2022/12/04 00:42:02;;;;;;;45.03;18.58;;;;;;;7.50;96.77;100918.28;5070764;28;20029;-36
2022/12/04 00:44:28;;;;;;;45.10;17.60;;;;;;;7.52;96.32;100922.44;5070752;28;20017;-36
2022/12/04 00:46:53;;;;;;;48.90;18.42;;;;;;;7.49;98.08;100914.81;5070945;28;20539;-35
2022/12/04 00:49:19;;;;;;;47.22;18.67;;;;;;;7.39;97.91;100919.38;5070871;28;20486;-36
2022/12/04 00:51:44;;;;;;;40.55;17.10;;;;;;;7.32;97.68;100916.50;5070475;28;20017;-37
2022/12/04 00:54:10;;;;;;;42.60;16.98;;;;;;;7.44;98.40;100911.78;5070279;28;20035;-37
2022/12/04 00:56:35;;;;;;;42.75;16.05;;;;;;;7.42;97.32;100909.31;5070427;28;20020;-37
2022/12/04 00:59:00;;;;;;;42.25;16.40;;;;;;;7.57;97.06;100916.69;5070808;28;20028;-37
2022/12/04 01:01:28;;;;;;;51.30;17.40;;;;;;;7.45;96.55;100910.81;5070600;28;20027;-37
2022/12/04 01:03:54;;;;;;;43.08;18.05;;;;;;;7.28;98.10;100901.91;5070819;28;20021;-37
2022/12/04 01:06:31;;;;;;;46.90;18.30;;;;;;;7.44;98.37;100902.03;5070428;28;20055;-37
2022/12/04 01:08:59;;;;;;;46.42;18.20;;;;;;;7.42;97.88;100911.09;5070587;28;20029;-37
2022/12/04 01:11:27;;;;;;;54.28;19.08;;;;;;;7.36;98.38;100907.25;5070579;28;20082;-37
2022/12/04 01:13:53;;;;;;;48.03;18.23;;;;;;;7.28;97.63;100898.44;5070648;28;20032;-37
2022/12/04 01:16:22;;;;;;;41.60;15.15;;;;;;;6.98;99.35;100911.06;5070882;28;20055;-37
2022/12/04 01:18:48;;;;;;;48.53;16.67;;;;;;;6.71;100.00;100907.50;5071138;28;20028;-37
2022/12/04 01:21:14;;;;;;;49.13;17.50;;;;;;;6.77;100.00;100900.78;5071227;28;20028;-37
2022/12/04 01:23:40;;;;;;;47.10;16.95;;;;;;;6.87;100.00;100912.13;5071481;28;20055;-36
2022/12/04 01:26:05;;;;;;;58.22;18.00;;;;;;;6.91;100.00;100899.41;5070731;28;20498;-37
2022/12/04 01:28:31;;;;;;;47.28;16.38;;;;;;;7.04;100.00;100915.75;5071066;28;20036;-37
2022/12/04 01:30:56;;;;;;;47.92;17.13;;;;;;;7.19;98.99;100916.88;5071123;28;20032;-36
2022/12/04 01:33:22;;;;;;;46.63;16.83;;;;;;;7.08;99.07;100917.09;5070978;28;20024;-36
2022/12/04 01:35:55;;;;;;;41.95;15.60;;;;;;;7.02;99.24;100901.84;5071068;28;20032;-36
2022/12/04 01:38:21;;;;;;;37.92;16.23;;;;;;;7.29;97.30;100915.97;5070951;28;20078;-36
2022/12/04 01:40:46;;;;;;;36.45;14.85;;;;;;;7.30;97.46;100917.63;5070753;28;20029;-36
2022/12/04 01:43:12;;;;;;;35.97;14.88;;;;;;;7.29;96.10;100921.25;5071076;28;20078;-36
2022/12/04 01:45:50;;;;;;;34.95;14.30;;;;;;;7.30;96.85;100925.59;5070748;28;20086;-36
2022/12/04 01:48:32;;;;;;;39.05;15.95;;;;;;;7.25;97.20;100920.72;5070918;28;20056;-37
2022/12/04 01:51:12;;;;;;;37.05;15.43;;;;;;;7.03;97.97;100911.47;5071122;28;20092;-36
2022/12/04 01:53:43;;;;;;;38.28;16.13;;;;;;;7.21;97.67;100906.13;5074568;28;20016;-37
2022/12/04 01:56:09;;;;;;;37.55;15.98;;;;;;;7.07;98.10;100914.63;5074465;28;20095;-37
2022/12/04 01:58:42;;;;;;;37.13;15.77;;;;;;;7.19;97.29;100905.47;5074422;28;20066;-36
2022/12/04 02:01:08;;;;;;;37.75;15.15;;;;;;;7.12;97.36;100913.19;5074829;28;20052;-36
2022/12/04 02:03:34;;;;;;;38.13;15.85;;;;;;;7.23;97.33;100899.72;5074906;28;20048;-37
2022/12/04 02:06:00;;;;;;;45.50;16.55;;;;;;;7.11;98.01;100908.88;5074165;28;20098;-37
2022/12/04 02:08:27;;;;;;;39.40;15.77;;;;;;;7.27;97.49;100910.81;5074347;28;20480;-37
2022/12/04 02:11:11;;;;;;;44.28;16.80;;;;;;;7.14;96.88;100907.72;5074113;28;20021;-36
2022/12/04 02:14:01;;;;;;;41.30;17.10;;;;;;;7.16;97.81;100906.59;5054213;28;20094;-37
2022/12/04 02:17:00;;;;;;;45.80;17.27;;;;;;;7.25;97.77;100894.25;5053821;28;20503;-37
2022/12/04 02:19:37;;;;;;;51.78;17.25;;;;;;;7.14;96.85;100900.63;5054185;28;20061;-36
2022/12/04 02:22:12;;;;;;;43.85;16.65;;;;;;;7.14;97.38;100903.28;5054245;28;20020;-37
2022/12/04 02:24:57;;;;;;;52.08;17.98;;;;;;;7.29;97.91;100906.22;5053970;28;20107;-37
2022/12/04 02:27:37;;;;;;;44.08;17.73;;;;;;;6.97;98.85;100912.91;5053940;28;20021;-37
2022/12/04 02:30:06;;;;;;;46.15;17.98;;;;;;;6.99;98.86;100905.63;5053940;28;20029;-36
2022/12/04 02:32:52;;;;;;;47.13;17.10;;;;;;;7.03;97.65;100901.69;5053918;28;20539;-37
2022/12/04 02:35:17;;;;;;;43.42;16.17;;;;;;;7.11;98.11;100902.75;5049867;28;20484;-36
2022/12/04 02:37:52;;;;;;;49.20;18.40;;;;;;;7.38;96.92;100907.91;5053955;28;20036;-36
2022/12/04 02:40:52;;;;;;;43.35;17.45;;;;;;;7.13;96.31;100908.72;5053721;28;20383;-36
2022/12/04 02:43:31;;;;;;;41.05;17.65;;;;;;;7.19;97.21;100908.94;5054023;28;20085;-36
2022/12/04 02:46:10;;;;;;;44.72;17.70;;;;;;;7.24;97.22;100908.50;5053627;28;20480;-36
2022/12/04 02:48:40;;;;;;;42.92;17.88;;;;;;;7.29;96.45;100905.38;5053855;28;20048;-36
2022/12/04 02:51:09;;;;;;;43.83;16.40;;;;;;;7.29;95.85;100900.94;5053605;28;20028;-36
2022/12/04 02:53:40;;;;;;;40.55;16.70;;;;;;;7.37;96.61;100900.97;5053443;28;20029;-36
2022/12/04 02:56:13;;;;;;;43.67;17.10;;;;;;;7.26;97.10;100898.56;5053447;28;20104;-36
2022/12/04 02:58:45;;;;;;;44.88;17.73;;;;;;;7.36;96.86;100898.47;5053463;28;20020;-36
2022/12/04 03:01:22;;;;;;;40.97;16.25;;;;;;;7.03;97.47;100903.53;5053823;28;20021;-35
2022/12/04 03:03:54;;;;;;;44.10;16.73;;;;;;;7.12;97.19;100918.50;5053476;28;20175;-36
2022/12/04 03:06:22;;;;;;;48.67;18.17;;;;;;;7.33;96.46;100899.63;5053047;28;20021;-36
2022/12/04 03:08:58;;;;;;;46.25;16.70;;;;;;;7.22;96.84;100907.81;5053461;28;20032;-36
2022/12/04 03:11:27;;;;;;;45.03;17.45;;;;;;;7.00;97.74;100886.09;5057706;28;20117;-36
2022/12/04 03:14:28;;;;;;;41.00;15.70;;;;;;;6.86;99.10;100905.19;5073375;28;20016;-36
2022/12/04 03:16:57;;;;;;;42.03;16.65;;;;;;;7.08;98.41;100905.69;5069330;28;20048;-36
2022/12/04 03:19:26;;;;;;;43.90;17.40;;;;;;;6.96;98.70;100895.34;5072948;28;20033;-36
2022/12/04 03:21:59;;;;;;;41.63;16.17;;;;;;;6.80;99.27;100895.22;5072486;28;20090;-37
2022/12/04 03:24:29;;;;;;;43.28;17.00;;;;;;;6.92;98.22;100903.75;5072841;28;20028;-37
2022/12/04 03:26:58;;;;;;;;;;;;;;;7.12;98.38;100907.91;5073149;28;20028;-37
2022/12/04 03:29:39;;;;;;;41.40;16.00;;;;;;;7.23;97.41;100898.88;5071638;28;19916;-37
2022/12/04 03:32:19;;;;;;;;;;;;;;;7.30;97.04;100893.81;5073143;28;20107;-37
2022/12/04 03:34:53;;;;;;;44.38;15.95;;;;;;;7.24;96.15;100896.06;5072233;28;19930;-37
2022/12/04 03:37:27;;;;;;;42.30;17.48;;;;;;;7.35;96.16;100897.66;5072172;28;20599;-37
2022/12/04 03:40:09;;;;;;;38.70;16.02;;;;;;;6.97;97.40;100902.31;5072542;28;20025;-37
2022/12/04 03:42:42;;;;;;;39.15;17.52;;;;;;;7.16;96.87;100908.41;5072507;28;20036;-37
2022/12/04 03:45:46;;;;;;;44.28;17.65;;;;;;;7.17;97.61;100902.13;5071556;28;20411;-37
2022/12/04 03:48:23;;;;;;;36.80;15.48;;;;;;;7.43;95.56;100897.72;5027693;28;20106;-37
2022/12/04 03:51:06;;;;;;;41.92;17.10;;;;;;;7.35;96.11;100900.31;5072160;28;20111;-38
2022/12/04 03:53:43;;;;;;;40.03;16.00;;;;;;;7.18;96.83;100909.13;5072028;28;20510;-37
2022/12/04 03:56:32;;;;;;;42.00;17.33;;;;;;;6.95;98.11;100912.22;5072079;28;20556;-37
2022/12/04 03:59:06;;;;;;;44.60;17.15;;;;;;;6.89;99.58;100910.16;5071575;28;20043;-37
2022/12/04 04:01:39;;;;;;;42.67;16.20;;;;;;;7.13;98.47;100908.72;5072769;28;20021;-37
2022/12/04 04:04:09;;;;;;;39.28;16.00;;;;;;;6.67;100.00;100905.31;5071798;28;20111;-37
2022/12/04 04:07:12;;;;;;;39.70;15.27;;;;;;;6.79;98.33;100907.56;5071927;28;20020;-37
2022/12/04 04:09:42;;;;;;;38.40;15.77;;;;;;;6.94;98.28;100910.53;5042626;28;20059;-37
2022/12/04 04:12:12;;;;;;;;;;;;;;;6.91;98.25;100910.84;5072475;28;20101;-36
2022/12/04 04:26:03;;;;;;;30.85;13.98;;;;;;;7.24;95.26;100911.13;5032194;28;20087;-37
2022/12/04 04:28:30;;;;;;;33.20;13.20;;;;;;;7.17;95.01;100910.06;5032018;28;20034;-36
2022/12/04 04:31:03;;;;;;;30.77;14.57;;;;;;;7.18;96.14;100917.06;5032031;28;20037;-36
2022/12/04 04:33:30;;;;;;;27.45;13.27;;;;;;;6.98;95.91;100913.72;5032039;28;20034;-36
2022/12/04 04:36:11;;;;;;;31.15;14.43;;;;;;;6.82;98.20;100917.88;5032023;28;20113;-36
2022/12/04 04:38:52;;;;;;;28.60;14.93;;;;;;;7.24;96.85;100913.78;5031729;28;20488;-36
2022/12/04 04:41:33;;;;;;;29.50;13.77;;;;;;;7.31;95.28;100925.44;5031833;28;20029;-36
2022/12/04 04:44:21;;;;;;;29.92;14.50;;;;;;;7.11;95.24;100918.63;5031558;28;20099;-36
2022/12/04 04:46:55;;;;;;;27.55;13.73;;;;;;;6.85;96.29;100893.78;5031493;28;20025;-37
2022/12/04 04:49:24;;;;;;;28.20;13.40;;;;;;;7.10;95.61;100919.59;5031737;28;20036;-37
2022/12/04 04:51:50;;;;;;;28.55;14.48;;;;;;;7.20;95.10;100931.78;5031590;28;20082;-37
2022/12/04 04:54:17;;;;;;;23.58;12.73;;;;;;;6.98;94.98;100929.59;5031357;28;20104;-36
2022/12/04 04:56:45;;;;;;;24.52;12.65;;;;;;;7.03;96.30;100922.88;5031925;28;20024;-36
2022/12/04 04:59:11;;;;;;;25.75;12.68;;;;;;;7.01;95.33;100934.59;5031656;28;20109;-37
2022/12/04 05:01:38;;;;;;;25.25;12.18;;;;;;;6.90;96.14;100935.66;5031575;28;20104;-36
2022/12/04 05:04:04;;;;;;;23.23;12.68;;;;;;;7.04;95.26;100940.44;5031480;28;20100;-36
2022/12/04 05:06:30;;;;;;;24.77;12.63;;;;;;;7.15;95.15;100930.59;5031311;28;20027;-36
2022/12/04 05:08:55;;;;;;;27.20;13.30;;;;;;;7.33;93.30;100935.84;5031419;28;20104;-37
2022/12/04 05:11:21;;;;;;;25.30;12.65;;;;;;;7.36;94.16;100951.44;5031578;28;20026;-36
2022/12/04 05:13:46;;;;;;;24.30;12.70;;;;;;;7.14;94.93;100945.66;5031388;28;20105;-36
2022/12/04 05:16:13;;;;;;;26.40;13.63;;;;;;;7.02;95.44;100945.00;5056347;28;20484;-36
2022/12/04 05:18:39;;;;;;;23.98;13.00;;;;;;;7.11;94.87;100945.94;5071009;28;20036;-35
2022/12/04 05:21:16;;;;;;;24.50;12.57;;;;;;;7.06;95.26;100948.19;5071104;28;20081;-35
2022/12/04 05:23:42;;;;;;;22.40;12.02;;;;;;;6.77;96.21;100951.88;5071187;28;20123;-36
2022/12/04 05:26:07;;;;;;;24.17;12.20;;;;;;;6.85;96.34;100946.69;5071171;28;20099;-35
2022/12/04 05:28:33;;;;;;;22.02;11.43;;;;;;;6.94;95.49;100946.75;5075121;28;20037;-34
2022/12/04 05:31:01;;;;;;;23.92;13.02;;;;;;;7.02;95.49;100938.91;5075381;28;20021;-36
2022/12/04 05:33:27;;;;;;;24.15;12.75;;;;;;;7.14;94.05;100952.72;5075270;28;20162;-36
2022/12/04 05:36:02;;;;;;;22.35;12.43;;;;;;;7.06;94.34;100950.84;5075036;28;20021;-36
2022/12/04 05:38:28;;;;;;;23.40;11.85;;;;;;;7.02;94.28;100960.88;5075119;28;20036;-35
2022/12/04 05:40:53;;;;;;;24.15;12.10;;;;;;;7.02;95.13;100968.84;5074982;28;20024;-36
2022/12/04 05:43:19;;;;;;;20.92;11.50;;;;;;;7.10;93.72;100965.47;5074466;28;20032;-36
2022/12/04 05:45:44;;;;;;;22.10;12.32;;;;;;;6.97;94.60;100955.25;5074385;28;20077;-36
2022/12/04 05:48:10;;;;;;;25.67;12.80;;;;;;;7.20;93.84;100963.56;5074650;28;20111;-36
2022/12/04 05:50:37;;;;;;;24.48;11.93;;;;;;;6.98;94.03;100970.13;5072015;28;20029;-37
2022/12/04 05:53:02;;;;;;;22.05;12.00;;;;;;;6.97;94.63;100962.34;5073481;28;20405;-37
2022/12/04 05:55:28;;;;;;;21.52;11.48;;;;;;;7.12;93.44;100960.00;5073561;28;20523;-37
2022/12/04 05:57:53;;;;;;;23.05;12.05;;;;;;;7.15;93.76;100962.34;5074287;28;20029;-36
2022/12/04 06:00:19;;;;;;;22.85;11.98;;;;;;;7.02;93.70;100957.41;5073593;28;20163;-36
2022/12/04 06:02:44;;;;;;;21.90;12.25;;;;;;;6.90;94.11;100967.41;5073736;28;20403;-36
2022/12/04 06:05:09;;;;;;;22.45;11.63;;;;;;;6.81;94.93;100968.28;5073675;28;20025;-36
2022/12/04 06:07:35;;;;;;;24.48;12.30;;;;;;;6.95;93.77;100969.59;5074098;28;20063;-36
2022/12/04 06:10:00;;;;;;;23.25;12.38;;;;;;;6.93;94.83;100975.06;5089247;28;20417;-36
2022/12/04 06:12:26;;;;;;;23.98;12.93;;;;;;;6.83;95.17;100980.41;5094493;28;20473;-36
2022/12/04 06:14:51;;;;;;;21.25;11.70;;;;;;;6.73;95.23;100976.97;5094525;28;20036;-36
2022/12/04 06:17:16;;;;;;;24.20;12.43;;;;;;;6.88;95.13;100974.66;5094254;28;20430;-37
2022/12/04 06:19:42;;;;;;;20.92;11.85;;;;;;;7.10;94.15;100988.44;5094344;28;20020;-36
2022/12/04 06:22:07;;;;;;;24.85;13.00;;;;;;;7.21;93.48;100988.22;5088972;28;20035;-38
2022/12/04 06:24:33;;;;;;;23.60;11.93;;;;;;;6.92;94.33;100991.06;5094022;28;20500;-37
2022/12/04 06:26:59;;;;;;;23.73;12.52;;;;;;;6.90;94.41;100985.94;5074620;28;20025;-36
2022/12/04 06:29:25;;;;;;;23.23;12.65;;;;;;;6.73;95.87;100998.13;5073964;28;20036;-36
2022/12/04 06:31:50;;;;;;;24.88;12.90;;;;;;;6.96;95.05;100997.72;5073948;28;20467;-36
2022/12/04 06:34:16;;;;;;;24.33;12.73;;;;;;;6.88;95.79;100997.66;5074220;28;20028;-36
2022/12/04 06:36:42;;;;;;;23.38;13.00;;;;;;;6.74;96.44;100986.59;5073592;28;20024;-35
2022/12/04 06:39:08;;;;;;;23.15;12.68;;;;;;;6.60;97.09;100997.66;5073192;28;20028;-36
2022/12/04 06:41:34;;;;;;;24.40;13.02;;;;;;;6.75;97.21;100998.81;5073738;28;20032;-36
2022/12/04 06:43:59;;;;;;;23.38;12.88;;;;;;;6.75;96.42;100998.00;5073796;28;20029;-36
2022/12/04 06:46:28;;;;;;;23.27;11.88;;;;;;;6.62;96.78;101001.81;5073901;28;20116;-36
2022/12/04 06:48:55;;;;;;;23.80;12.50;;;;;;;6.69;96.52;100995.94;5073392;28;20024;-34
2022/12/04 06:51:29;;;;;;;23.63;12.82;;;;;;;6.64;96.91;100993.72;5072349;28;20277;-36
2022/12/04 06:53:54;;;;;;;22.05;11.60;;;;;;;6.73;96.56;100992.03;5073719;28;20046;-36
2022/12/04 06:56:22;;;;;;;25.52;12.23;;;;;;;6.69;96.34;100988.84;5073460;28;20560;-36
2022/12/04 06:58:51;;;;;;;21.17;11.40;;;;;;;6.88;95.71;100987.88;5073651;28;20028;-36
2022/12/04 07:01:20;;;;;;;19.80;10.60;;;;;;;6.62;96.37;100996.50;5073464;28;20468;-36
2022/12/04 07:03:47;;;;;;;19.42;10.80;;;;;;;6.59;96.62;101002.13;5072971;28;20107;-36
2022/12/04 07:06:21;;;;;;;21.05;11.60;;;;;;;6.66;97.13;101005.00;5073099;28;20090;-36
2022/12/04 07:08:49;;;;;;;22.67;11.55;;;;;;;6.57;96.91;100998.78;5073064;28;20060;-36
2022/12/04 07:11:15;;;;;;;21.02;12.05;;;;;;;6.57;97.37;100988.22;5072980;28;20104;-36
2022/12/04 07:13:41;;;;;;;22.67;11.02;;;;;;;6.73;96.03;101007.91;5072885;28;20044;-38
2022/12/04 07:16:09;;;;;;;22.42;11.80;;;;;;;6.80;96.02;101009.81;5071413;28;20044;-37
2022/12/04 07:18:35;;;;;;;19.98;11.93;;;;;;;6.95;95.12;101007.50;5073351;28;20068;-37
2022/12/04 07:21:10;;;;;;;25.02;11.70;;;;;;;6.44;96.24;100980.59;5072529;28;20103;-36
2022/12/04 07:23:36;;;;;;;18.83;10.70;;;;;;;6.51;97.26;101007.31;5072869;28;20111;-37
2022/12/04 07:26:07;;;;;;;21.13;11.18;;;;;;;6.52;97.27;101003.69;5072364;28;20471;-37
2022/12/04 07:28:33;;;;;;;20.40;10.90;;;;;;;6.63;96.39;101008.78;5066253;28;20060;-37
2022/12/04 07:31:06;;;;;;;18.83;10.98;;;;;;;7.06;97.42;101014.38;5057384;28;20032;-37
2022/12/04 07:33:33;;;;;;;21.55;10.77;;;;;;;7.63;98.08;100998.19;5066510;28;20032;-36
2022/12/04 07:36:00;;;;;;;19.98;11.90;;;;;;;8.29;93.74;101010.06;5070796;28;20016;-37
2022/12/04 07:38:27;;;;;;;17.05;10.52;;;;;;;8.61;93.89;101008.59;5068499;28;20705;-37
2022/12/04 07:40:55;;;;;;;15.52;9.27;;;;;;;8.25;89.92;101005.22;5067729;28;20108;-36
2022/12/04 07:43:21;;;;;;;18.10;10.00;;;;;;;8.66;90.99;101005.44;5069129;28;20067;-36
2022/12/04 07:45:46;;;;;;;14.98;9.55;;;;;;;8.87;84.86;101011.19;5068561;28;20052;-36
2022/12/04 07:48:12;;;;;;;15.60;9.40;;;;;;;7.98;87.78;101005.22;5068469;28;20052;-36
2022/12/04 07:50:37;;;;;;;16.65;9.70;;;;;;;8.78;86.65;101012.13;5068038;28;20031;-36
2022/12/04 07:53:03;;;;;;;17.73;9.43;;;;;;;8.24;86.66;101009.69;5070369;28;20032;-36
2022/12/04 07:55:28;;;;;;;15.30;9.63;;;;;;;7.75;87.91;101006.72;5070800;28;20472;-36
2022/12/04 07:57:53;;;;;;;16.52;9.70;;;;;;;7.52;89.80;101007.22;5070398;28;20036;-36
2022/12/04 08:00:19;;;;;;;16.70;8.95;;;;;;;7.04;92.44;101016.34;5070768;28;20035;-36
2022/12/04 08:02:44;;;;;;;18.00;9.80;;;;;;;7.19;93.76;101014.00;5070227;28;20024;-36
2022/12/04 08:05:10;;;;;;;18.65;9.88;;;;;;;7.30;91.99;101013.78;5070451;28;20082;-37
2022/12/04 08:07:35;;;;;;;21.15;11.35;;;;;;;7.35;90.59;101008.88;5070604;28;20036;-35
2022/12/04 08:10:01;;;;;;;23.13;10.80;;;;;;;7.37;91.85;101021.97;5070189;28;20025;-37
2022/12/04 08:12:26;;;;;;;19.70;10.68;;;;;;;7.05;93.50;101018.00;5067961;28;20115;-36
2022/12/04 08:14:51;;;;;;;21.83;11.48;;;;;;;7.20;94.34;101015.69;5068268;28;20071;-37
2022/12/04 08:17:17;;;;;;;19.15;10.40;;;;;;;7.71;91.78;101022.09;5068727;28;20036;-36
2022/12/04 08:19:42;;;;;;;19.95;10.05;;;;;;;7.02;93.90;101020.94;5069270;28;20044;-37
2022/12/04 08:22:08;;;;;;;19.80;10.05;;;;;;;7.23;93.48;101025.97;5070025;28;20127;-37
2022/12/04 08:24:33;;;;;;;19.58;10.52;;;;;;;7.20;94.21;101013.88;5059365;28;20370;-40
2022/12/04 08:26:58;;;;;;;22.15;11.10;;;;;;;7.20;93.72;101028.94;5070824;28;20029;-36
2022/12/04 08:29:24;;;;;;;23.55;10.60;;;;;;;7.04;94.67;101017.19;5070160;28;20539;-35
2022/12/04 08:31:49;;;;;;;22.00;11.65;;;;;;;6.93;95.38;101021.84;5069203;28;20017;-36
2022/12/04 08:34:15;;;;;;;20.70;12.13;;;;;;;6.97;95.22;101012.66;5069139;28;20035;-36
2022/12/04 08:36:40;;;;;;;20.20;10.48;;;;;;;6.82;95.29;101007.84;5069015;28;20487;-36
2022/12/04 08:39:07;;;;;;;21.10;11.48;;;;;;;7.16;95.23;101003.72;5070252;28;20074;-37
2022/12/04 08:41:32;;;;;;;23.92;11.23;;;;;;;7.00;94.47;101021.09;5070410;28;20112;-35
2022/12/04 08:43:58;;;;;;;23.02;11.63;;;;;;;6.97;95.24;101018.75;5070473;28;20036;-36
2022/12/04 08:46:25;;;;;;;23.33;11.23;;;;;;;6.89;96.01;101018.66;5070253;28;20081;-37
2022/12/04 08:48:51;;;;;;;21.80;10.88;;;;;;;6.79;96.28;101018.72;5070410;28;20039;-35
2022/12/04 08:51:22;;;;;;;27.00;11.27;;;;;;;7.05;95.23;101013.53;5070237;28;20099;-35
2022/12/04 08:53:52;;;;;;;19.02;9.73;;;;;;;6.84;95.00;101008.53;5069551;28;20236;-37
2022/12/04 08:56:17;;;;;;;20.63;10.55;;;;;;;7.01;94.15;101020.13;5069392;28;20009;-35
2022/12/04 08:58:43;;;;;;;18.20;10.10;;;;;;;6.99;94.71;101014.16;5070784;28;20032;-35
2022/12/04 09:01:11;;;;;;;23.40;10.75;;;;;;;7.57;92.72;101004.91;5070243;28;20020;-36
2022/12/04 09:03:37;;;;;;;22.45;11.07;;;;;;;7.49;92.40;101006.69;5070473;28;20413;-36
2022/12/04 09:06:04;;;;;;;24.50;11.18;;;;;;;7.52;92.32;101009.88;5070358;28;20021;-36
2022/12/04 09:08:30;;;;;;;23.88;11.27;;;;;;;7.66;91.54;101005.84;5067805;28;20029;-36
2022/12/04 09:11:09;;;;;;;20.40;9.77;;;;;;;7.02;94.12;100997.94;5065645;28;20541;-37
2022/12/04 09:13:35;;;;;;;19.75;9.73;;;;;;;7.14;93.69;101000.38;5063486;28;20039;-37
2022/12/04 09:16:09;;;;;;;24.35;11.02;;;;;;;7.34;94.18;100991.31;5050102;28;20365;-36
2022/12/04 09:18:36;;;;;;;21.65;9.65;;;;;;;7.21;94.02;100989.03;5069885;28;20036;-36
2022/12/04 09:21:05;;;;;;;22.90;11.07;;;;;;;7.10;95.01;101007.81;5070014;28;20016;-36
2022/12/04 09:23:32;;;;;;;;;;;;;;;7.32;93.96;101003.06;5070776;28;20024;-37
2022/12/04 09:25:57;;;;;;;22.55;10.45;;;;;;;7.32;93.36;100995.13;5070085;28;19914;-36
2022/12/04 09:28:23;;;;;;;25.55;11.13;;;;;;;7.31;93.50;100981.03;5070351;28;20657;-36
2022/12/04 09:31:03;;;;;;;23.98;11.23;;;;;;;7.21;94.19;100983.75;5070211;28;20035;-36
2022/12/04 09:33:29;;;;;;;24.98;11.18;;;;;;;7.15;93.06;100973.75;5068910;28;20361;-36
2022/12/04 09:35:57;;;;;;;27.20;11.93;;;;;;;6.94;94.71;100976.69;5069898;28;20034;-36
2022/12/04 09:38:23;;;;;;;27.38;11.77;;;;;;;7.12;94.24;100941.47;5070026;28;20024;-37
2022/12/04 09:40:56;;;;;;;23.33;11.50;;;;;;;7.50;91.74;100964.16;5070340;28;20020;-37
2022/12/04 09:43:33;;;;;;;24.17;10.82;;;;;;;6.94;94.49;100968.75;5070048;28;20020;-37
2022/12/04 09:46:08;;;;;;;25.20;10.10;;;;;;;6.82;94.52;100960.22;5069947;28;20025;-37
2022/12/04 09:48:38;;;;;;;26.42;10.80;;;;;;;6.84;95.94;100952.94;5069991;28;20138;-36
2022/12/04 09:51:05;;;;;;;28.63;11.57;;;;;;;7.04;94.99;100958.09;5070419;28;20119;-37
2022/12/04 09:53:44;;;;;;;26.50;11.85;;;;;;;7.04;95.03;100968.69;5069986;28;20021;-37
2022/12/04 09:56:20;;;;;;;25.92;10.77;;;;;;;6.80;95.06;100962.19;5069383;28;20032;-36
2022/12/04 09:58:53;;;;;;;20.42;10.65;;;;;;;6.85;95.42;100969.66;5069792;28;20028;-36
2022/12/04 10:01:31;;;;;;;23.45;11.25;;;;;;;6.80;94.74;100961.34;5069656;28;20493;-36
2022/12/04 10:03:56;;;;;;;19.90;9.68;;;;;;;6.91;94.00;100977.03;5070023;28;20097;-37
2022/12/04 10:06:31;;;;;;;19.98;10.70;;;;;;;6.74;95.30;100967.22;5069682;28;20025;-36
2022/12/04 10:09:27;;;;;;;25.77;12.48;;;;;;;6.64;96.15;100949.63;5070182;28;20059;-35
2022/12/04 10:12:25;;;;;;;25.50;12.60;;;;;;;6.84;95.70;100952.13;5042283;28;20033;-36
2022/12/04 10:14:59;;;;;;;22.15;12.02;;;;;;;6.88;95.19;100958.78;5073160;28;20435;-36
2022/12/04 10:17:36;;;;;;;21.48;12.90;;;;;;;7.24;93.11;100946.38;5073408;28;20111;-36
2022/12/04 10:20:20;;;;;;;25.02;13.57;;;;;;;7.37;92.89;100934.59;5072860;28;20738;-36
2022/12/04 10:23:04;;;;;;;26.23;12.82;;;;;;;7.33;91.45;100942.00;5072924;28;20441;-36
2022/12/04 10:25:34;;;;;;;20.20;12.18;;;;;;;7.30;92.02;100936.19;5072770;28;20110;-36
2022/12/04 10:28:18;;;;;;;25.60;13.60;;;;;;;7.48;91.39;100944.91;5073005;28;20043;-36
2022/12/04 10:30:45;;;;;;;24.33;12.73;;;;;;;7.47;91.49;100931.84;5073109;28;20024;-36
2022/12/04 10:33:36;;;;;;;22.95;13.48;;;;;;;7.22;92.08;100927.16;5072570;28;20032;-36
2022/12/04 10:36:03;;;;;;;22.98;13.05;;;;;;;7.10;92.80;100930.19;5057976;28;20397;-37
2022/12/04 10:38:44;;;;;;;22.13;13.15;;;;;;;7.23;92.28;100928.84;5053077;28;20052;-36
2022/12/04 10:41:32;;;;;;;22.17;12.73;;;;;;;7.07;92.04;100922.56;5051977;28;20029;-37
2022/12/04 10:43:57;;;;;;;19.00;11.93;;;;;;;7.20;93.38;100925.66;5052541;28;20093;-37
2022/12/04 10:46:29;;;;;;;23.25;12.02;;;;;;;8.02;89.83;100923.56;5052630;28;20469;-37
2022/12/04 10:49:00;;;;;;;19.17;11.95;;;;;;;7.71;89.42;100920.56;5052705;28;20126;-36
2022/12/04 10:51:30;;;;;;;18.15;11.90;;;;;;;7.28;91.14;100914.31;5052377;28;20037;-36
2022/12/04 10:53:56;;;;;;;16.90;10.55;;;;;;;7.00;92.40;100912.56;5051195;28;20033;-36
2022/12/04 10:56:25;;;;;;;15.27;8.00;;;;;;;6.62;93.67;100922.44;5066165;28;20040;-36
2022/12/04 10:59:04;;;;;;;13.23;7.88;;;;;;;6.52;95.50;100905.81;5072323;28;20031;-37
2022/12/04 11:01:33;;;;;;;15.43;7.43;;;;;;;6.49;94.76;100913.22;5071922;28;20054;-36
2022/12/04 11:04:07;;;;;;;12.23;7.80;;;;;;;6.57;95.03;100900.09;5070256;28;20035;-37
2022/12/04 11:06:33;;;;;;;12.95;7.78;;;;;;;6.83;93.88;100897.53;5071847;28;20036;-36
2022/12/04 11:09:01;;;;;;;14.32;8.20;;;;;;;6.76;93.77;100892.03;5072985;28;20112;-37
2022/12/04 11:11:37;;;;;;;12.23;8.38;;;;;;;6.70;94.55;100899.72;5072268;28;20105;-36
2022/12/04 11:14:20;;;;;;;14.25;8.63;;;;;;;6.65;94.08;100887.78;5072458;28;20087;-36
2022/12/04 11:16:49;;;;;;;14.02;8.63;;;;;;;6.76;93.56;100880.59;5071948;28;20419;-36
2022/12/04 11:19:27;;;;;;;14.13;8.73;;;;;;;6.56;94.85;100886.03;5072149;28;20024;-36
2022/12/04 11:22:02;;;;;;;15.48;8.65;;;;;;;6.74;94.43;100882.56;5072218;28;20487;-36
2022/12/04 11:24:33;;;;;;;15.30;9.80;;;;;;;6.97;93.74;100886.44;5072047;28;20024;-37
2022/12/04 11:27:01;;;;;;;14.82;9.57;;;;;;;6.99;92.84;100878.34;5072150;28;20028;-36
2022/12/04 11:29:41;;;;;;;15.02;8.77;;;;;;;7.17;91.86;100867.72;5072054;28;20550;-37
2022/12/04 11:32:23;;;;;;;13.38;8.85;;;;;;;7.17;91.44;100867.72;5071765;28;20024;-36
2022/12/04 11:34:52;;;;;;;14.43;9.25;;;;;;;7.20;91.47;100862.13;5071435;28;20407;-37
2022/12/04 11:37:23;;;;;;;16.67;9.70;;;;;;;7.08;92.06;100869.47;5071247;28;20025;-36
2022/12/04 11:39:50;;;;;;;13.98;9.15;;;;;;;7.16;91.63;100863.41;5071591;28;20111;-36
2022/12/04 11:42:22;;;;;;;17.42;10.15;;;;;;;7.09;92.93;100867.66;5071366;28;20414;-36
2022/12/04 11:44:58;;;;;;;14.40;9.57;;;;;;;6.90;94.43;100860.72;5071183;28;20415;-36